GFO weather

Bartica A Airport
Bartica, Cuyuni-Mazaruni, Guyana

Public forecast

Using degrees Celsius for public forecast. Weather courtesy of forecast.io.

METAR (pilot weather report)

Closest report is Cheddi Jagan International Airport, 25.4 nm (47.0 km) ENE. Retrieved 2019/03/25 19:00 UTC (60 minutes ago):

SYCJ 251900Z 04012T 9999 SCT021 SCT100 30/22 Q1011 NOSIG

TAF (pilot weather forecast)

Closest forecast is Cheddi Jagan International Airport, 25.4 nm (47.0 km) ENE. Retrieved 2019/03/25 18:33 UTC (1 hour ago):

TAF SYCJ 251725Z 2518/2618 06014KT 9999 BKN020 SCT045 BECMG 2522/2600 04008KT 9999 SCT016 BECMG 2605/2607 VRB02KT 4000 BR FEW015 SCT038